Frontenac, KS

7:29 AM CDT on September 23, 2019 (GMT -0500)
Shepard | | Change Station
Active Advisory: Dense Fog Advisory Active Notice: Public Information Statement

Elev 958 ft 37.45 °N, 94.71 °W | Updated 1 minute ago

Scattered Clouds
Scattered Clouds
61.5 °F
Feels Like 61.5 °F
N
0
Wind Variable Wind from NE
Gusts 0.0 mph

Today
High -- | Low -- °F
--% Chance of Precip.
Yesterday
High -- | Low -- °F
Precip. -- in
Pressure 30.08 in
Visibility 5.0 miles
Clouds Scattered Clouds 300 ft
Dew Point 61 °F
Humidity 99%
Rainfall 0.01 in
Snow Depth Not available.
7:07 AM 7:14 PM
Waning Crescent, 35% visible
METAR KPTS 231215Z AUTO 00000KT 5SM BR SCT003 16/16 A3008 RMK AO2 T01640163
Pressure 30.08 in
Visibility 5.0 miles
Clouds Scattered Clouds 300 ft
Dew Point 61 °F
Humidity 99%
Rainfall 0.01 in
Snow Depth Not available.
7:07 AM 7:14 PM
Waning Crescent, 35% visible
METAR KPTS 231215Z AUTO 00000KT 5SM BR SCT003 16/16 A3008 RMK AO2 T01640163

Get Your Daily Forecast Email!

Thanks for signing up!

Be on the lookout for a verification email in your inbox.

You'll start receiving severe weather alerts in your inbox..

×

10-Day Weather Forecast

Almanac

Astronomy

Sep. 23, 2019 Rise Set
Actual Time
Civil Twilight
Nautical Twilight
Astronomical Twilight
Moon
Length of Visible Light
Length of Day
Tomorrow will be .
, % of the Moon is Illuminated

Today's Extremes

State Highs State Lows

Community

WunderPhotos

Category 6

Welcome to Category 6. This is the collective home for Weather Underground's featured writeups by Dr. Jeff Masters (right), Bob Henson (left), Chris Burt, and other regular contributors.

Nearby

Air Quality

  Air Quality AQ Index Pollutant
Not available.

Snow Depth

Station Depth Elevation

Earthquake Activity

City Distance Mag. Time & Date
Minimum magnitude displayed is 2.5.

Coastal Water Temperatures

Place Temperature

Stations

Nearby Weather Stations

Station Location Temp. Windchill Dew Point Humidity Wind Precip. Elev Updated Type
                   

Watches & Warnings

Dense Fog Advisory
Issued: 4:42 AM CDT Sep. 23, 2019 – National Weather Service

... Dense fog advisory in effect until 9 am CDT this morning...

The National Weather Service in Springfield has issued a dense
fog advisory, which is in effect until 9 am CDT this morning.

* Visibility... one quarter mile or less.

* Impacts... poor visibility will make driving difficult.

Precautionary/preparedness actions...

A dense fog advisory means visibilities will frequently be
reduced to less than one quarter mile. If driving, slow down, use
your headlights, and leave plenty of distance ahead of you.



Burchfield